createdAt,value
2019-04-30T00:00:22.065Z,72.44
2019-04-30T00:05:25.144Z,72.35
2019-04-30T00:10:35.411Z,72.60
2019-04-30T00:15:30.727Z,72.70
2019-04-30T00:20:37.049Z,72.64
2019-04-30T00:25:35.711Z,72.92
2019-04-30T00:30:39.258Z,72.81
2019-04-30T00:35:40.759Z,72.79
2019-04-30T00:40:42.290Z,72.59
2019-04-30T00:45:47.345Z,72.62
2019-04-30T00:50:47.447Z,72.80
2019-04-30T00:55:49.277Z,73.33
2019-04-30T01:00:50.858Z,73.18
2019-04-30T01:05:52.429Z,73.71
2019-04-30T01:10:55.631Z,73.70
2019-04-30T01:15:58.754Z,73.30
2019-04-30T01:21:02.931Z,73.79
2019-04-30T01:26:04.056Z,73.91
2019-04-30T01:31:06.063Z,73.89
2019-04-30T01:36:09.526Z,73.16
2019-04-30T01:41:11.063Z,72.41
2019-04-30T01:46:13.963Z,72.05
2019-04-30T01:51:20.335Z,71.64
2019-04-30T01:56:19.331Z,72.19
2019-04-30T02:01:20.896Z,71.65
2019-04-30T02:06:22.475Z,71.42
2019-04-30T02:11:24.379Z,71.32
2019-04-30T02:16:25.981Z,70.53
2019-04-30T02:21:27.561Z,71.76
2019-04-30T02:26:29.535Z,71.00
2019-04-30T02:31:31.129Z,70.79
2019-04-30T02:36:32.809Z,71.05
2019-04-30T02:41:35.114Z,71.58
2019-04-30T02:46:36.397Z,71.44
2019-04-30T02:51:39.994Z,71.89
2019-04-30T02:56:40.996Z,72.43
2019-04-30T03:01:42.320Z,72.06
2019-04-30T03:06:44.110Z,71.90
2019-04-30T03:11:45.464Z,72.15
2019-04-30T03:16:52.633Z,72.53
2019-04-30T03:21:50.501Z,72.77
2019-04-30T03:26:51.846Z,73.03
2019-04-30T03:31:53.231Z,73.23
2019-04-30T03:36:54.693Z,72.38
2019-04-30T03:41:56.045Z,72.36
2019-04-30T03:46:59.335Z,72.22
2019-04-30T03:52:00.951Z,72.29
2019-04-30T03:57:02.238Z,72.50
2019-04-30T04:02:03.715Z,73.09
2019-04-30T04:07:04.951Z,73.20
2019-04-30T04:12:06.465Z,72.81
2019-04-30T04:17:09.851Z,72.58
2019-04-30T04:22:12.266Z,72.75
2019-04-30T04:27:13.957Z,71.28
2019-04-30T04:32:15.225Z,72.85
2019-04-30T04:37:16.461Z,73.24
2019-04-30T04:42:19.388Z,72.58
2019-04-30T04:47:21.276Z,72.95
2019-04-30T04:52:23.019Z,73.64
2019-04-30T04:57:24.266Z,74.00
2019-04-30T05:02:25.637Z,73.79
2019-04-30T05:07:28.698Z,74.44
2019-04-30T05:12:30.570Z,76.16
2019-04-30T05:17:32.297Z,75.03
2019-04-30T05:22:33.767Z,74.30
2019-04-30T05:27:35.184Z,73.38
2019-04-30T05:32:36.417Z,74.01
2019-04-30T05:37:38.454Z,72.37
2019-04-30T05:42:39.999Z,71.98
2019-04-30T05:47:41.466Z,71.40
2019-04-30T05:52:42.844Z,70.59
2019-04-30T05:57:53.870Z,70.30
2019-04-30T06:02:49.526Z,70.42
2019-04-30T06:07:52.044Z,69.71
2019-04-30T06:12:53.972Z,68.69
2019-04-30T06:18:00.288Z,68.33
2019-04-30T06:22:59.652Z,67.56
2019-04-30T06:28:01.143Z,66.52
2019-04-30T06:33:02.950Z,67.50
2019-04-30T06:38:04.297Z,66.50
2019-04-30T06:43:05.862Z,66.99
2019-04-30T06:48:08.756Z,66.40
2019-04-30T06:53:10.244Z,66.07
2019-04-30T06:58:15.274Z,66.68
2019-04-30T07:03:15.183Z,65.16
2019-04-30T07:08:16.441Z,65.17
2019-04-30T07:13:18.788Z,64.65
2019-04-30T07:18:20.719Z,63.46
2019-04-30T07:23:22.191Z,63.76
2019-04-30T07:28:42.704Z,64.03
2019-04-30T07:33:29.427Z,65.29
2019-04-30T07:38:35.788Z,65.86
2019-04-30T07:43:34.126Z,66.22
2019-04-30T07:48:35.414Z,66.14
2019-04-30T07:53:36.887Z,66.97
2019-04-30T07:58:39.113Z,66.55
2019-04-30T08:03:40.940Z,67.36
2019-04-30T08:08:42.761Z,66.72
2019-04-30T08:13:44.755Z,66.40
2019-04-30T08:18:46.429Z,66.91
2019-04-30T08:23:48.975Z,66.81
2019-04-30T08:28:50.696Z,67.59
2019-04-30T08:33:52.155Z,68.16
2019-04-30T08:38:53.573Z,67.61
2019-04-30T08:43:54.836Z,67.54
2019-04-30T08:48:56.242Z,67.25
2019-04-30T08:53:58.707Z,67.77
2019-04-30T08:59:00.333Z,67.81
2019-04-30T09:04:02.307Z,67.63
2019-04-30T09:09:05.594Z,66.91
2019-04-30T09:14:08.565Z,67.43
2019-04-30T09:19:10.418Z,67.20
2019-04-30T09:24:11.659Z,67.66
2019-04-30T09:29:12.960Z,67.82
2019-04-30T09:34:18.028Z,67.50
2019-04-30T09:39:19.889Z,66.84
2019-04-30T09:44:21.858Z,66.70
2019-04-30T09:49:23.533Z,66.65
2019-04-30T09:54:25.246Z,67.02
2019-04-30T09:59:28.965Z,66.27
2019-04-30T10:04:31.233Z,65.76
2019-04-30T10:09:33.195Z,65.97
2019-04-30T10:14:34.439Z,65.59
2019-04-30T10:19:35.862Z,65.67
2019-04-30T10:24:39.206Z,65.29
2019-04-30T10:29:41.231Z,65.05
2019-04-30T10:34:42.636Z,65.38
2019-04-30T10:39:44.534Z,65.79
2019-04-30T10:44:45.763Z,66.44
2019-04-30T10:49:48.675Z,66.13
2019-04-30T10:54:50.110Z,66.02
2019-04-30T10:59:51.856Z,65.54
2019-04-30T11:04:53.372Z,65.56
2019-04-30T11:09:54.673Z,65.13
2019-04-30T11:14:55.897Z,64.68
2019-04-30T11:19:59.195Z,63.55
2019-04-30T11:25:02.760Z,62.87
2019-04-30T11:30:04.759Z,62.65
2019-04-30T11:35:07.462Z,62.19
2019-04-30T11:40:10.183Z,61.72
2019-04-30T11:45:19.452Z,61.13
2019-04-30T11:50:20.866Z,61.36
2019-04-30T11:55:22.129Z,60.41
2019-04-30T12:00:23.533Z,61.48
2019-04-30T12:05:25.008Z,60.97
2019-04-30T12:10:26.504Z,60.31
2019-04-30T12:15:29.112Z,59.45
2019-04-30T12:20:33.590Z,58.52
2019-04-30T12:25:34.711Z,58.23
2019-04-30T12:30:36.045Z,58.51
2019-04-30T12:35:37.312Z,58.65
2019-04-30T12:40:39.006Z,58.83
2019-04-30T12:45:40.293Z,59.38
2019-04-30T12:50:41.903Z,59.39
2019-04-30T12:55:43.385Z,58.19
2019-04-30T13:00:44.760Z,58.51
2019-04-30T13:05:46.477Z,58.17
2019-04-30T13:10:48.267Z,57.65
2019-04-30T13:15:49.938Z,58.13
2019-04-30T13:20:52.286Z,58.29
2019-04-30T13:25:53.861Z,58.38
2019-04-30T13:30:55.654Z,58.79
2019-04-30T13:35:58.429Z,59.34
2019-04-30T13:41:00.530Z,60.11
2019-04-30T13:46:02.001Z,59.22
2019-04-30T13:51:03.242Z,59.50
2019-04-30T13:56:04.639Z,59.50
2019-04-30T14:01:06.091Z,60.75
2019-04-30T14:06:09.118Z,60.98
2019-04-30T14:11:10.464Z,61.15
2019-04-30T14:16:11.893Z,61.56
2019-04-30T14:21:13.381Z,61.72
2019-04-30T14:26:15.009Z,61.80
2019-04-30T14:31:16.285Z,61.52
2019-04-30T14:36:19.351Z,62.11
2019-04-30T14:41:21.351Z,62.36
2019-04-30T14:46:23.489Z,62.79
2019-04-30T14:51:25.219Z,62.24
2019-04-30T14:56:26.450Z,62.58
2019-04-30T15:01:29.297Z,63.52
2019-04-30T15:06:31.241Z,63.50
2019-04-30T15:11:32.714Z,63.52
2019-04-30T15:16:34.235Z,63.33
2019-04-30T15:21:36.109Z,63.60
2019-04-30T15:26:39.335Z,63.98
2019-04-30T15:31:42.625Z,64.92
2019-04-30T15:36:43.977Z,63.59
2019-04-30T15:41:45.781Z,64.01
2019-04-30T15:46:47.474Z,64.35
2019-04-30T15:51:48.713Z,64.02
2019-04-30T15:56:50.140Z,63.94
2019-04-30T16:01:51.722Z,64.26
2019-04-30T16:06:53.195Z,64.15
2019-04-30T16:11:54.557Z,63.69
2019-04-30T16:16:56.360Z,63.88
2019-04-30T16:21:57.596Z,63.92
2019-04-30T16:26:59.496Z,63.62
2019-04-30T16:32:00.966Z,63.08
2019-04-30T16:37:02.321Z,63.93
2019-04-30T16:42:03.710Z,64.78
2019-04-30T16:47:13.728Z,65.51
2019-04-30T16:52:09.188Z,64.86
2019-04-30T16:57:10.714Z,64.54
2019-04-30T17:02:12.231Z,65.62
2019-04-30T17:07:13.645Z,66.33
2019-04-30T17:12:14.992Z,67.00
2019-04-30T17:17:16.695Z,66.34
2019-04-30T17:22:18.084Z,65.87
2019-04-30T17:27:22.121Z,66.27
2019-04-30T17:32:23.316Z,67.14
2019-04-30T17:37:24.564Z,67.78
2019-04-30T17:47:34.421Z,67.93
2019-04-30T17:52:37.230Z,67.37
2019-04-30T17:57:40.312Z,67.58
2019-04-30T18:02:41.824Z,67.57
2019-04-30T18:07:43.297Z,67.21
2019-04-30T18:12:44.708Z,67.55
2019-04-30T18:17:46.116Z,67.63
2019-04-30T18:22:48.896Z,68.12
2019-04-30T18:27:50.401Z,68.69
2019-04-30T18:32:52.528Z,68.65
2019-04-30T18:37:54.026Z,68.97
2019-04-30T18:42:55.849Z,69.18
2019-04-30T18:47:59.451Z,69.55
2019-04-30T18:53:01.044Z,69.46
2019-04-30T18:58:02.887Z,69.33
2019-04-30T19:03:04.186Z,69.32
2019-04-30T19:08:05.566Z,69.41
2019-04-30T19:13:08.805Z,69.22
2019-04-30T19:18:10.220Z,69.38
2019-04-30T19:23:12.179Z,68.96
2019-04-30T19:28:14.580Z,69.28
2019-04-30T19:33:16.297Z,69.33
2019-04-30T19:38:17.774Z,69.50
2019-04-30T19:43:19.379Z,70.38
2019-04-30T19:48:21.047Z,70.62
2019-04-30T19:53:22.432Z,71.06
2019-04-30T19:58:29.399Z,70.17
2019-04-30T20:03:29.184Z,69.66
2019-04-30T20:08:31.366Z,69.29
2019-04-30T20:13:37.074Z,68.65
2019-04-30T20:18:36.021Z,68.14
2019-04-30T20:23:37.378Z,68.37
2019-04-30T20:28:42.270Z,68.47
2019-04-30T20:33:42.045Z,68.75
2019-04-30T20:38:43.794Z,68.70
2019-04-30T20:43:45.039Z,68.70
2019-04-30T20:48:46.519Z,68.63
2019-04-30T20:53:49.160Z,68.21
2019-04-30T20:58:57.813Z,68.07
2019-04-30T21:03:53.913Z,68.38
2019-04-30T21:08:55.461Z,68.57
2019-04-30T21:13:56.709Z,68.45
2019-04-30T21:18:58.312Z,69.18
2019-04-30T21:23:59.601Z,69.78
2019-04-30T21:29:11.086Z,69.54
2019-04-30T21:34:04.586Z,69.31
2019-04-30T21:39:06.052Z,68.74
2019-04-30T21:44:07.528Z,68.16
2019-04-30T21:49:09.011Z,67.66
2019-04-30T21:54:10.380Z,67.07
2019-04-30T21:59:23.765Z,66.41
2019-04-30T22:04:14.931Z,66.45
2019-04-30T22:09:16.186Z,66.68
2019-04-30T22:14:17.912Z,66.64
2019-04-30T22:19:19.181Z,66.64
2019-04-30T22:24:20.887Z,66.42
2019-04-30T22:29:22.253Z,65.99
2019-04-30T22:34:23.825Z,66.11
2019-04-30T22:39:25.076Z,66.21
2019-04-30T22:44:26.652Z,66.14
2019-04-30T22:49:28.240Z,66.08
2019-04-30T22:54:29.786Z,66.42
2019-04-30T22:59:31.244Z,66.32
2019-04-30T23:04:32.841Z,66.45
2019-04-30T23:09:34.092Z,66.59
2019-04-30T23:14:35.358Z,66.94
2019-04-30T23:19:36.715Z,67.47
2019-04-30T23:24:37.980Z,67.69
2019-04-30T23:29:39.818Z,68.17
2019-04-30T23:34:41.136Z,68.43
2019-04-30T23:39:42.393Z,68.54
2019-04-30T23:44:43.938Z,68.64
2019-04-30T23:49:45.176Z,68.80
2019-04-30T23:54:46.705Z,69.16
2019-04-30T23:59:47.932Z,70.02
